CheckWX is a tool to help pilots better visualize weather data.  It is not intended as a substitute for an official pre-flight weather briefing.

06:45:39 UTC

CYSJ TAF
Saint John Airport
Saint John, Canada
TAF CYSJ 160538Z 1606/1618 19008KT P6SM BKN160 TEMPO 1606/1612 5SM -SHRA BR BKN020 OVC050 FM161200 20012KT P6SM FEW020 SCT120 RMK NXT FCST BY 161200Z

Jun-16@
06:00 UTC

Jun-16 @ 06:00 UTC

Jun-16@
12:00 UTC

Jun-16 @ 12:00 UTC

TAF CYSJ 160538Z 1606/1618 19008KT P6SM BKN160
Wind
  • 190° at 8 KTS
Cloud Levels
  • Broken at 16,000' AGL

Jun-16@
06:00 UTC

Jun-16 @ 06:00 UTC

Jun-16@
12:00 UTC

Jun-16 @ 12:00 UTC

TEMPO 1606/1612 5SM -SHRA BR BKN020 OVC050

Temporary

Temporary Changes expected for less than half the time period

Conditions
Light Rain, Mist
Cloud Levels
  • Broken at 2,000' AGL
  • Overcast at 5,000' AGL

Jun-16@
12:00 UTC

Jun-16 @ 12:00 UTC

Jun-16@
18:00 UTC

Jun-16 @ 18:00 UTC

FM161200 20012KT P6SM FEW020 SCT120 RMK NXT FCST BY 161200Z

From

From Standard forecast or significant change

Wind
  • 200° at 12 KTS
Cloud Levels
  • Few at 2,000' AGL
  • Scattered at 12,000' AGL